createdAt,value
2023-04-15T00:02:20.712Z,101082.91
2023-04-15T00:04:50.336Z,101087.38
2023-04-15T00:07:19.326Z,101075.50
2023-04-15T00:09:48.361Z,101087.59
2023-04-15T00:12:17.307Z,101083.66
2023-04-15T00:14:46.379Z,101077.69
2023-04-15T00:17:18.077Z,101068.44
2023-04-15T00:19:47.369Z,101071.31
2023-04-15T00:22:21.958Z,101074.06
2023-04-15T00:24:51.148Z,101068.53
2023-04-15T00:27:20.559Z,101066.88
2023-04-15T00:29:49.629Z,101073.03
2023-04-15T00:32:18.756Z,101075.38
2023-04-15T00:34:48.665Z,101083.75
2023-04-15T00:37:17.809Z,101077.03
2023-04-15T00:39:53.178Z,101083.75
2023-04-15T00:42:26.740Z,101081.00
2023-04-15T00:44:57.419Z,101079.66
2023-04-15T00:47:28.007Z,101071.13
2023-04-15T00:50:02.225Z,101066.91
2023-04-15T00:52:31.711Z,101067.41
2023-04-15T00:55:01.606Z,101059.81
2023-04-15T00:57:35.035Z,101061.09
2023-04-15T01:00:05.615Z,101066.88
2023-04-15T01:02:37.272Z,101065.09
2023-04-15T01:05:06.895Z,101068.81
2023-04-15T01:07:36.263Z,101061.75
2023-04-15T01:10:06.078Z,101071.53
2023-04-15T01:12:36.156Z,101063.97
2023-04-15T01:15:06.624Z,101053.13
2023-04-15T01:17:37.250Z,101055.25
2023-04-15T01:20:16.837Z,101061.25
2023-04-15T01:23:19.127Z,101060.94
2023-04-15T01:25:51.121Z,101061.19
2023-04-15T01:28:21.390Z,101057.78
2023-04-15T01:30:50.786Z,101059.91
2023-04-15T01:33:22.176Z,101068.69
2023-04-15T01:36:10.904Z,101064.03
2023-04-15T01:38:40.256Z,101065.97
2023-04-15T01:41:09.054Z,101058.06
2023-04-15T01:43:39.680Z,101064.22
2023-04-15T01:46:27.146Z,101069.16
2023-04-15T01:48:58.703Z,101059.72
2023-04-15T01:51:29.584Z,101073.34
2023-04-15T01:54:00.182Z,101062.81
2023-04-15T01:56:30.692Z,101072.25
2023-04-15T01:59:01.856Z,101060.28
2023-04-15T02:01:32.904Z,101059.44
2023-04-15T02:04:03.554Z,101057.19
2023-04-15T02:06:35.006Z,101060.16
2023-04-15T02:09:05.330Z,101049.25
2023-04-15T02:11:36.916Z,101055.97
2023-04-15T02:14:07.687Z,101051.25
2023-04-15T02:16:38.098Z,101057.00
2023-04-15T02:19:09.876Z,101056.28
2023-04-15T02:21:43.770Z,101049.16
2023-04-15T02:24:14.092Z,101054.88
2023-04-15T02:26:44.690Z,101061.44
2023-04-15T02:29:14.975Z,101055.88
2023-04-15T02:31:46.065Z,101048.00
2023-04-15T02:34:16.706Z,101049.66
2023-04-15T02:36:49.611Z,101052.09
2023-04-15T02:39:20.943Z,101054.13
2023-04-15T02:41:54.470Z,101046.16
2023-04-15T02:44:25.756Z,101052.09
2023-04-15T02:47:00.970Z,101054.47
2023-04-15T02:49:31.929Z,101058.41
2023-04-15T02:52:02.495Z,101057.56
2023-04-15T02:54:34.784Z,101068.25
2023-04-15T02:57:07.636Z,101064.59
2023-04-15T02:59:38.470Z,101068.53
2023-04-15T03:02:09.423Z,101064.91
2023-04-15T03:04:40.676Z,101067.19
2023-04-15T03:07:10.965Z,101067.88
2023-04-15T03:09:42.122Z,101063.47
2023-04-15T03:12:12.715Z,101071.78
2023-04-15T03:14:43.092Z,101068.09
2023-04-15T03:17:16.780Z,101076.41
2023-04-15T03:19:48.331Z,101075.50
2023-04-15T03:22:19.079Z,101080.16
2023-04-15T03:24:49.799Z,101091.63
2023-04-15T03:27:20.512Z,101086.00
2023-04-15T03:29:51.219Z,101096.22
2023-04-15T03:32:22.518Z,101103.34
2023-04-15T03:37:49.987Z,101108.41
2023-04-15T03:40:24.766Z,101116.66
2023-04-15T03:46:18.990Z,101126.97
2023-04-15T03:52:12.537Z,101127.63
2023-04-15T03:54:53.959Z,101130.72
2023-04-15T03:57:27.722Z,101144.88
2023-04-15T04:00:08.211Z,101148.13
2023-04-15T04:02:42.404Z,101150.38
2023-04-15T04:05:12.873Z,101151.88
2023-04-15T04:07:45.528Z,101159.38
2023-04-15T04:10:39.094Z,101163.72
2023-04-15T04:13:12.626Z,101163.97
2023-04-15T04:15:49.079Z,101164.59
2023-04-15T04:18:33.377Z,101169.72
2023-04-15T04:21:06.743Z,101168.09
2023-04-15T04:23:37.461Z,101172.81
2023-04-15T04:26:10.618Z,101175.41
2023-04-15T04:28:43.997Z,101176.91
2023-04-15T04:31:14.479Z,101183.16
2023-04-15T04:33:44.720Z,101186.22
2023-04-15T04:36:15.151Z,101180.31
2023-04-15T04:38:45.647Z,101186.66
2023-04-15T04:41:16.067Z,101186.56
2023-04-15T04:43:46.500Z,101188.81
2023-04-15T04:46:17.407Z,101190.84
2023-04-15T04:48:49.400Z,101191.97
2023-04-15T04:51:20.009Z,101192.25
2023-04-15T04:53:50.506Z,101191.00
2023-04-15T04:56:21.004Z,101201.94
2023-04-15T04:58:52.255Z,101190.13
2023-04-15T05:01:22.721Z,101199.47
2023-04-15T05:03:53.199Z,101190.88
2023-04-15T05:06:23.562Z,101199.91
2023-04-15T05:08:53.959Z,101185.88
2023-04-15T05:11:24.351Z,101194.47
2023-04-15T05:13:54.795Z,101192.38
2023-04-15T05:16:26.782Z,101186.41
2023-04-15T05:18:57.611Z,101190.28
2023-04-15T05:21:28.614Z,101194.16
2023-04-15T05:23:59.040Z,101184.84
2023-04-15T05:26:32.378Z,101184.25
2023-04-15T05:29:04.319Z,101190.53
2023-04-15T05:31:35.071Z,101184.25
2023-04-15T05:34:06.377Z,101184.00
2023-04-15T05:36:36.973Z,101187.78
2023-04-15T05:39:07.988Z,101189.81
2023-04-15T05:41:38.910Z,101186.22
2023-04-15T05:44:09.244Z,101189.78
2023-04-15T05:46:42.912Z,101180.91
2023-04-15T05:49:13.433Z,101183.03
2023-04-15T05:51:43.599Z,101180.72
2023-04-15T05:54:13.932Z,101178.38
2023-04-15T05:56:44.204Z,101182.16
2023-04-15T05:59:14.786Z,101176.63
2023-04-15T06:01:45.931Z,101170.22
2023-04-15T06:04:16.366Z,101167.81
2023-04-15T06:06:47.198Z,101169.84
2023-04-15T06:09:17.766Z,101169.63
2023-04-15T06:11:48.204Z,101157.13
2023-04-15T06:14:18.602Z,101171.81
2023-04-15T06:16:48.969Z,101166.91
2023-04-15T06:19:20.218Z,101169.91
2023-04-15T06:21:53.513Z,101164.88
2023-04-15T06:24:23.920Z,101170.22
2023-04-15T06:26:54.404Z,101167.75
2023-04-15T06:29:24.759Z,101163.44
2023-04-15T06:31:55.177Z,101158.03
2023-04-15T06:34:25.464Z,101157.91
2023-04-15T06:36:55.968Z,101163.28
2023-04-15T06:39:26.542Z,101161.75
2023-04-15T06:41:57.681Z,101158.78
2023-04-15T06:44:28.050Z,101167.50
2023-04-15T06:47:07.416Z,101156.31
2023-04-15T06:50:05.424Z,101154.69
2023-04-15T06:52:36.802Z,101160.69
2023-04-15T06:55:13.559Z,101166.84
2023-04-15T06:57:49.184Z,101161.19
2023-04-15T07:00:22.172Z,101163.28
2023-04-15T07:02:53.055Z,101162.28
2023-04-15T07:05:26.289Z,101160.75
2023-04-15T07:08:05.104Z,101159.09
2023-04-15T07:10:41.070Z,101156.22
2023-04-15T07:13:16.813Z,101158.47
2023-04-15T07:15:47.322Z,101153.72
2023-04-15T07:18:17.703Z,101151.50
2023-04-15T07:20:51.070Z,101154.78
2023-04-15T07:23:27.210Z,101156.69
2023-04-15T07:25:58.265Z,101157.41
2023-04-15T07:28:28.998Z,101158.63
2023-04-15T07:31:00.409Z,101163.38
2023-04-15T07:33:30.818Z,101160.16
2023-04-15T07:36:01.113Z,101164.28
2023-04-15T07:38:31.747Z,101170.41
2023-04-15T07:41:02.235Z,101172.94
2023-04-15T07:43:35.308Z,101180.25
2023-04-15T07:46:06.962Z,101172.50
2023-04-15T07:48:37.816Z,101165.66
2023-04-15T07:51:08.816Z,101183.69
2023-04-15T07:53:39.501Z,101187.25
2023-04-15T07:56:09.772Z,101186.25
2023-04-15T07:58:40.082Z,101188.47
2023-04-15T08:01:10.291Z,101192.69
2023-04-15T08:03:40.998Z,101196.88
2023-04-15T08:06:11.370Z,101197.59
2023-04-15T08:08:42.531Z,101200.34
2023-04-15T08:11:12.984Z,101200.25
2023-04-15T08:13:43.183Z,101210.94
2023-04-15T08:16:28.679Z,101206.34
2023-04-15T08:18:59.747Z,101207.22
2023-04-15T08:21:31.774Z,101203.56
2023-04-15T08:24:02.508Z,101199.91
2023-04-15T08:26:33.617Z,101202.22
2023-04-15T08:29:06.712Z,101199.75
2023-04-15T08:31:37.073Z,101193.50
2023-04-15T08:34:07.696Z,101203.63
2023-04-15T08:36:38.056Z,101203.63
2023-04-15T08:39:09.503Z,101205.28
2023-04-15T08:41:49.147Z,101210.16
2023-04-15T08:44:21.016Z,101218.19
2023-04-15T08:46:53.317Z,101211.50
2023-04-15T08:49:45.776Z,101216.13
2023-04-15T08:52:20.870Z,101211.16
2023-04-15T08:54:51.543Z,101225.28
2023-04-15T08:57:22.597Z,101221.66
2023-04-15T08:59:54.138Z,101225.41
2023-04-15T09:02:26.636Z,101237.94
2023-04-15T09:05:00.427Z,101232.78
2023-04-15T09:07:30.759Z,101243.88
2023-04-15T09:10:01.314Z,101241.94
2023-04-15T09:12:32.376Z,101238.38
2023-04-15T09:15:03.685Z,101245.31
2023-04-15T09:17:35.680Z,101239.44
2023-04-15T09:20:16.563Z,101238.94
2023-04-15T09:22:49.282Z,101244.31
2023-04-15T09:25:25.745Z,101241.19
2023-04-15T09:27:58.616Z,101245.41
2023-04-15T09:30:30.338Z,101244.09
2023-04-15T09:33:11.802Z,101242.72
2023-04-15T09:35:42.303Z,101246.81
2023-04-15T09:38:13.541Z,101243.66
2023-04-15T09:40:43.917Z,101249.09
2023-04-15T09:43:14.463Z,101247.03
2023-04-15T09:45:55.300Z,101250.25
2023-04-15T09:48:31.918Z,101253.00
2023-04-15T09:51:12.266Z,101247.47
2023-04-15T09:53:42.627Z,101246.28
2023-04-15T09:56:15.921Z,101245.44
2023-04-15T09:58:57.568Z,101239.66
2023-04-15T10:01:28.592Z,101250.81
2023-04-15T10:04:00.610Z,101245.16
2023-04-15T10:06:32.397Z,101239.66
2023-04-15T10:09:03.399Z,101240.09
2023-04-15T10:11:35.161Z,101245.28
2023-04-15T10:14:08.872Z,101242.03
2023-04-15T10:16:43.999Z,101254.69
2023-04-15T10:19:34.596Z,101242.84
2023-04-15T10:22:07.089Z,101241.97
2023-04-15T10:24:38.180Z,101240.34
2023-04-15T10:27:10.106Z,101251.41
2023-04-15T10:29:40.442Z,101239.44
2023-04-15T10:32:12.277Z,101248.88
2023-04-15T10:34:43.338Z,101250.06
2023-04-15T10:37:13.769Z,101246.41
2023-04-15T10:39:45.270Z,101244.09
2023-04-15T10:42:22.105Z,101249.97
2023-04-15T10:44:52.727Z,101245.41
2023-04-15T10:47:23.235Z,101246.22
2023-04-15T10:50:02.444Z,101243.44
2023-04-15T10:52:33.894Z,101241.41
2023-04-15T10:55:07.960Z,101252.25
2023-04-15T10:57:43.358Z,101248.31
2023-04-15T11:00:18.181Z,101250.63
2023-04-15T11:02:49.846Z,101256.81
2023-04-15T11:05:21.695Z,101260.97
2023-04-15T11:07:55.480Z,101262.69
2023-04-15T11:10:34.370Z,101260.75
2023-04-15T11:13:13.429Z,101257.75
2023-04-15T11:15:48.708Z,101263.59
2023-04-15T11:18:18.899Z,101267.25
2023-04-15T11:20:55.743Z,101257.75
2023-04-15T11:23:34.883Z,101265.09
2023-04-15T11:26:11.019Z,101270.53
2023-04-15T11:28:43.569Z,101265.19
2023-04-15T11:31:15.278Z,101262.91
2023-04-15T11:33:57.272Z,101268.81
2023-04-15T11:36:29.723Z,101265.25
2023-04-15T11:39:01.185Z,101266.09
2023-04-15T11:41:31.608Z,101265.66
2023-04-15T11:44:02.535Z,101269.09
2023-04-15T11:46:33.286Z,101254.56
2023-04-15T11:49:05.735Z,101266.03
2023-04-15T11:51:37.122Z,101260.09
2023-04-15T11:54:09.109Z,101262.41
2023-04-15T11:56:38.415Z,101269.75
2023-04-15T11:59:09.674Z,101273.69
2023-04-15T12:01:48.137Z,101272.22
2023-04-15T12:04:23.309Z,101268.50
2023-04-15T12:06:56.699Z,101275.00
2023-04-15T12:09:29.941Z,101280.66
2023-04-15T12:12:00.467Z,101278.41
2023-04-15T12:14:31.099Z,101278.81
2023-04-15T12:17:02.282Z,101279.03
2023-04-15T12:19:36.747Z,101280.44
2023-04-15T12:22:08.285Z,101281.41
2023-04-15T12:24:39.318Z,101281.72
2023-04-15T12:27:10.554Z,101289.69
2023-04-15T12:29:44.520Z,101277.41
2023-04-15T12:32:15.808Z,101285.31
2023-04-15T12:34:51.300Z,101295.94
2023-04-15T12:37:20.764Z,101280.28
2023-04-15T12:39:51.335Z,101282.13
2023-04-15T12:42:21.302Z,101289.75
2023-04-15T12:44:50.376Z,101289.19
2023-04-15T12:47:19.367Z,101286.06
2023-04-15T12:49:50.436Z,101293.91
2023-04-15T12:52:28.232Z,101283.66
2023-04-15T12:54:57.692Z,101282.75
2023-04-15T12:57:26.642Z,101287.34
2023-04-15T12:59:55.821Z,101293.59
2023-04-15T13:02:26.443Z,101298.97
2023-04-15T13:04:55.964Z,101296.50
2023-04-15T13:07:25.183Z,101293.84
2023-04-15T13:09:54.139Z,101293.84
2023-04-15T13:12:23.172Z,101303.03
2023-04-15T13:14:52.153Z,101301.88
2023-04-15T13:17:22.771Z,101298.41
2023-04-15T13:19:52.110Z,101294.25
2023-04-15T13:22:21.277Z,101293.09
2023-04-15T13:24:53.237Z,101294.25
2023-04-15T13:27:22.472Z,101290.97
2023-04-15T13:29:51.392Z,101294.53
2023-04-15T13:32:20.618Z,101289.44
2023-04-15T13:34:57.058Z,101289.81
2023-04-15T13:37:29.831Z,101291.06
2023-04-15T13:39:59.487Z,101290.25
2023-04-15T13:42:30.885Z,101295.19
2023-04-15T13:44:59.956Z,101299.75
2023-04-15T13:47:29.369Z,101291.94
2023-04-15T13:49:59.013Z,101291.22
2023-04-15T13:52:28.289Z,101296.75
2023-04-15T13:55:07.858Z,101302.13
2023-04-15T13:57:46.905Z,101304.53
2023-04-15T14:00:16.491Z,101309.34
2023-04-15T14:02:45.689Z,101309.13
2023-04-15T14:05:14.870Z,101311.97
2023-04-15T14:07:43.809Z,101323.81
2023-04-15T14:10:13.004Z,101320.09
2023-04-15T14:12:42.925Z,101314.34
2023-04-15T14:15:12.952Z,101324.03
2023-04-15T14:17:43.331Z,101320.75
2023-04-15T14:20:14.008Z,101320.50
2023-04-15T14:22:44.644Z,101320.97
2023-04-15T14:25:23.059Z,101316.78
2023-04-15T14:27:59.718Z,101322.63
2023-04-15T14:30:29.592Z,101324.63
2023-04-15T14:32:58.795Z,101322.06
2023-04-15T14:35:28.199Z,101323.22
2023-04-15T14:37:57.806Z,101327.66
2023-04-15T14:40:26.894Z,101328.53
2023-04-15T14:42:55.938Z,101330.72
2023-04-15T14:45:25.130Z,101335.63
2023-04-15T14:47:54.468Z,101328.59
2023-04-15T14:50:23.743Z,101336.88
2023-04-15T14:52:54.901Z,101334.50
2023-04-15T14:55:23.982Z,101336.81
2023-04-15T14:57:53.220Z,101340.66
2023-04-15T15:00:22.245Z,101343.97
2023-04-15T15:02:51.506Z,101351.03
2023-04-15T15:05:20.872Z,101359.47
2023-04-15T15:07:50.207Z,101348.78
2023-04-15T15:10:35.810Z,101355.69
2023-04-15T15:13:13.474Z,101349.91
2023-04-15T15:15:42.931Z,101352.19
2023-04-15T15:18:12.403Z,101354.78
2023-04-15T15:20:41.840Z,101359.06
2023-04-15T15:23:11.100Z,101352.91
2023-04-15T15:25:40.398Z,101364.50
2023-04-15T15:28:11.961Z,101367.69
2023-04-15T15:30:41.512Z,101374.84
2023-04-15T15:33:16.156Z,101369.16
2023-04-15T15:35:45.691Z,101369.31
2023-04-15T15:38:14.782Z,101365.22
2023-04-15T15:40:43.997Z,101370.38
2023-04-15T15:43:13.352Z,101363.25
2023-04-15T15:45:48.273Z,101373.03
2023-04-15T15:48:17.327Z,101369.81
2023-04-15T15:50:47.032Z,101378.72
2023-04-15T15:53:21.578Z,101381.94
2023-04-15T15:55:53.607Z,101377.22
2023-04-15T15:58:23.366Z,101377.84
2023-04-15T16:00:52.548Z,101378.38
2023-04-15T16:03:21.758Z,101387.31
2023-04-15T16:05:50.914Z,101376.16
2023-04-15T16:08:20.928Z,101384.47
2023-04-15T16:10:50.104Z,101381.19
2023-04-15T16:13:19.255Z,101389.38
2023-04-15T16:15:48.431Z,101383.47
2023-04-15T16:18:18.210Z,101392.13
2023-04-15T16:20:47.614Z,101392.13
2023-04-15T16:23:18.178Z,101393.75
2023-04-15T16:25:47.278Z,101393.31
2023-04-15T16:28:25.526Z,101401.56
2023-04-15T16:30:57.240Z,101397.19
2023-04-15T16:33:26.631Z,101394.59
2023-04-15T16:35:55.632Z,101401.78
2023-04-15T16:38:24.694Z,101402.97
2023-04-15T16:40:53.747Z,101403.41
2023-04-15T16:43:22.767Z,101403.34
2023-04-15T16:45:51.938Z,101407.69
2023-04-15T16:48:22.049Z,101402.25
2023-04-15T16:50:51.258Z,101402.56
2023-04-15T16:53:29.628Z,101402.41
2023-04-15T16:55:58.712Z,101399.38
2023-04-15T16:58:29.608Z,101402.25
2023-04-15T17:01:50.537Z,101406.19
2023-04-15T17:04:19.961Z,101405.91
2023-04-15T17:06:50.431Z,101403.59
2023-04-15T17:09:19.535Z,101409.13
2023-04-15T17:11:49.617Z,101414.09
2023-04-15T17:14:18.726Z,101410.56
2023-04-15T17:16:48.482Z,101412.34
2023-04-15T17:19:17.624Z,101404.75
2023-04-15T17:21:56.990Z,101392.97
2023-04-15T17:24:26.255Z,101395.97
2023-04-15T17:27:01.508Z,101398.47
2023-04-15T17:29:35.398Z,101396.84
2023-04-15T17:32:07.824Z,101398.84
2023-04-15T17:34:56.679Z,101395.13
2023-04-15T17:37:45.490Z,101400.34
2023-04-15T17:40:34.455Z,101402.44
2023-04-15T17:43:23.426Z,101393.16
2023-04-15T17:46:17.020Z,101396.47
2023-04-15T17:49:09.376Z,101403.00
2023-04-15T17:51:59.018Z,101394.16
2023-04-15T17:54:47.985Z,101391.94
2023-04-15T17:57:37.206Z,101387.63
2023-04-15T18:00:26.912Z,101384.03
2023-04-15T18:03:20.125Z,101395.19
2023-04-15T18:06:09.069Z,101389.25
2023-04-15T18:08:57.928Z,101387.88
2023-04-15T18:11:49.256Z,101392.66
2023-04-15T18:14:38.548Z,101389.41
2023-04-15T18:17:27.466Z,101403.13
2023-04-15T18:20:58.175Z,101411.81
2023-04-15T18:23:33.628Z,101399.72
2023-04-15T18:26:02.776Z,101400.69
2023-04-15T18:28:32.384Z,101399.47
2023-04-15T18:31:02.364Z,101404.00
2023-04-15T18:33:31.691Z,101406.22
2023-04-15T18:36:00.816Z,101400.19
2023-04-15T18:38:30.103Z,101410.63
2023-04-15T18:40:59.687Z,101406.66
2023-04-15T18:43:29.520Z,101406.00
2023-04-15T18:45:58.991Z,101395.72
2023-04-15T18:48:28.351Z,101396.81
2023-04-15T18:50:59.216Z,101384.03
2023-04-15T18:53:28.921Z,101386.53
2023-04-15T18:56:01.840Z,101385.50
2023-04-15T18:59:09.680Z,101377.81
2023-04-15T19:01:35.618Z,101381.25
2023-04-15T19:04:04.928Z,101393.16
2023-04-15T19:06:34.503Z,101396.78
2023-04-15T19:09:03.923Z,101385.53
2023-04-15T19:11:33.314Z,101385.56
2023-04-15T19:14:02.621Z,101387.16
2023-04-15T19:16:31.724Z,101384.53
2023-04-15T19:19:00.728Z,101383.69
2023-04-15T19:21:31.606Z,101380.34
2023-04-15T19:24:01.891Z,101375.81
2023-04-15T19:26:33.792Z,101378.06
2023-04-15T19:29:03.116Z,101378.75
2023-04-15T19:31:32.452Z,101378.97
2023-04-15T19:34:01.697Z,101383.88
2023-04-15T19:36:30.956Z,101376.28
2023-04-15T19:39:03.046Z,101382.19
2023-04-15T19:41:32.389Z,101384.28
2023-04-15T19:44:01.913Z,101388.53
2023-04-15T19:46:31.482Z,101385.69
2023-04-15T19:49:02.185Z,101378.75
2023-04-15T19:51:31.611Z,101382.03
2023-04-15T19:54:00.783Z,101393.03
2023-04-15T19:56:31.744Z,101415.63
2023-04-15T19:59:03.294Z,101399.97
2023-04-15T20:01:33.300Z,101393.50
2023-04-15T20:04:04.912Z,101391.81
2023-04-15T20:06:34.414Z,101383.84
2023-04-15T20:09:04.041Z,101384.72
2023-04-15T20:12:06.598Z,101389.63
2023-04-15T20:14:24.783Z,101396.28
2023-04-15T20:16:53.857Z,101386.00
2023-04-15T20:19:22.888Z,101388.91
2023-04-15T20:21:52.718Z,101387.25
2023-04-15T20:24:22.453Z,101392.22
2023-04-15T20:26:51.557Z,101405.72
2023-04-15T20:29:21.529Z,101418.44
2023-04-15T20:31:50.680Z,101407.88
2023-04-15T20:34:19.923Z,101403.69
2023-04-15T20:36:49.096Z,101409.38
2023-04-15T20:39:19.301Z,101419.03
2023-04-15T20:41:50.265Z,101406.25
2023-04-15T20:44:19.632Z,101398.09
2023-04-15T20:46:48.780Z,101391.75
2023-04-15T20:49:17.890Z,101402.00
2023-04-15T20:51:47.020Z,101422.34
2023-04-15T20:54:19.401Z,101429.50
2023-04-15T20:56:51.207Z,101435.50
2023-04-15T20:59:20.932Z,101433.13
2023-04-15T21:01:50.614Z,101429.72
2023-04-15T21:04:22.939Z,101441.38
2023-04-15T21:06:53.065Z,101441.06
2023-04-15T21:09:22.177Z,101435.16
2023-04-15T21:14:24.043Z,101430.31
2023-04-15T21:16:53.016Z,101431.44
2023-04-15T21:19:22.102Z,101433.69
2023-04-15T21:21:51.081Z,101430.66
2023-04-15T21:24:20.363Z,101434.22
2023-04-15T21:26:49.632Z,101446.81
2023-04-15T21:29:19.119Z,101455.25
2023-04-15T21:31:48.293Z,101463.28
2023-04-15T21:34:17.844Z,101466.47
2023-04-15T21:36:47.196Z,101465.53
2023-04-15T21:39:16.355Z,101462.09
2023-04-15T21:41:48.189Z,101463.06
2023-04-15T21:44:19.320Z,101468.69
2023-04-15T21:46:48.494Z,101458.94
2023-04-15T21:49:20.623Z,101458.66
2023-04-15T21:51:50.100Z,101462.22
2023-04-15T21:54:19.386Z,101467.50
2023-04-15T21:56:50.509Z,101464.75
2023-04-15T21:59:22.481Z,101461.06
2023-04-15T22:01:52.052Z,101467.66
2023-04-15T22:04:21.235Z,101463.81
2023-04-15T22:06:50.642Z,101475.56
2023-04-15T22:09:22.629Z,101474.53
2023-04-15T22:11:51.655Z,101469.84
2023-04-15T22:14:20.584Z,101456.84
2023-04-15T22:16:50.105Z,101472.66
2023-04-15T22:19:20.583Z,101458.97
2023-04-15T22:21:51.950Z,101465.53
2023-04-15T22:24:32.973Z,101465.03
2023-04-15T22:27:09.725Z,101456.09
2023-04-15T22:29:38.754Z,101452.53
2023-04-15T22:32:08.664Z,101455.41
2023-04-15T22:34:41.293Z,101459.97
2023-04-15T22:37:10.563Z,101453.50
2023-04-15T22:39:39.627Z,101455.06
2023-04-15T22:42:11.331Z,101457.06
2023-04-15T22:44:40.477Z,101455.09
2023-04-15T22:47:27.251Z,101459.53
2023-04-15T22:49:56.649Z,101454.44
2023-04-15T22:52:30.701Z,101446.28
2023-04-15T22:55:00.776Z,101446.22
2023-04-15T22:57:30.001Z,101452.56
2023-04-15T22:59:59.095Z,101441.53
2023-04-15T23:02:31.797Z,101435.13
2023-04-15T23:05:26.173Z,101443.81
2023-04-15T23:07:55.364Z,101439.28
2023-04-15T23:10:24.450Z,101437.91
2023-04-15T23:12:53.631Z,101439.44
2023-04-15T23:15:22.831Z,101431.53
2023-04-15T23:17:52.175Z,101429.94
2023-04-15T23:20:22.275Z,101425.31
2023-04-15T23:22:51.312Z,101421.75
2023-04-15T23:25:23.031Z,101411.81
2023-04-15T23:27:52.128Z,101404.91
2023-04-15T23:30:23.875Z,101411.25
2023-04-15T23:32:52.960Z,101412.13
2023-04-15T23:35:22.471Z,101406.75
2023-04-15T23:37:51.675Z,101406.91
2023-04-15T23:40:23.619Z,101395.69
2023-04-15T23:42:52.930Z,101402.25
2023-04-15T23:45:22.581Z,101395.69
2023-04-15T23:47:51.538Z,101395.53
2023-04-15T23:50:23.380Z,101406.31
2023-04-15T23:52:52.452Z,101406.88
2023-04-15T23:55:22.517Z,101398.00
2023-04-15T23:57:51.595Z,101398.84
